Time;durP1;ratioP1;P1;durP2;ratioP2;P2;SDS_P1;SDS_P2;PMS_P1;PMS_P2;Temp;Humidity;BMP_temperature;BMP_pressure;BME280_temperature;BME280_humidity;BME280_pressure;Samples;Min_cycle;Max_cycle;Signal;HPM_P1;HPM_P2
2022/01/09 00:00:17;;;;;;;0.20;0.00;;;4.40;99.90;;;;;;5059433;28;20118;-88
2022/01/09 00:02:43;;;;;;;0.22;0.22;;;4.40;99.90;;;;;;5059163;28;20089;-89
2022/01/09 00:05:09;;;;;;;0.00;0.00;;;4.40;99.90;;;;;;5076123;28;20422;-89
2022/01/09 00:07:35;;;;;;;0.00;0.00;;;4.40;99.90;;;;;;5075741;28;20036;-89
2022/01/09 00:10:01;;;;;;;0.40;0.13;;;4.40;99.90;;;;;;5059084;28;20047;-89
2022/01/09 00:12:27;;;;;;;1.50;0.00;;;4.40;99.90;;;;;;5078386;28;20048;-89
2022/01/09 00:14:53;;;;;;;0.00;0.00;;;4.40;99.90;;;;;;5079988;28;20047;-89
2022/01/09 00:17:19;;;;;;;0.15;0.05;;;4.40;99.90;;;;;;5079334;28;20054;-89
2022/01/09 00:19:45;;;;;;;0.00;0.00;;;4.40;99.90;;;;;;5079983;28;20083;-90
2022/01/09 00:22:12;;;;;;;0.00;0.00;;;4.40;99.90;;;;;;5079885;28;20089;-90
2022/01/09 00:24:38;;;;;;;0.00;0.00;;;4.40;99.90;;;;;;5063423;28;20052;-90
2022/01/09 00:27:06;;;;;;;0.00;0.00;;;4.40;99.90;;;;;;5063278;28;20044;-92
2022/01/09 00:29:32;;;;;;;0.00;0.00;;;4.50;99.90;;;;;;5063532;28;20131;-91
2022/01/09 00:32:00;;;;;;;0.00;0.00;;;4.50;99.90;;;;;;5079594;28;20079;-92
2022/01/09 00:34:26;;;;;;;0.10;0.10;;;4.40;99.90;;;;;;5080033;28;20140;-91
2022/01/09 00:36:52;;;;;;;0.00;0.00;;;5.40;99.90;;;;;;5062384;28;20062;-90
2022/01/09 00:39:18;;;;;;;0.00;0.00;;;4.70;99.90;;;;;;5063025;28;20050;-90
2022/01/09 00:41:43;;;;;;;0.10;0.10;;;6.20;99.90;;;;;;5062660;28;20044;-89
2022/01/09 00:44:09;;;;;;;0.00;0.00;;;4.40;99.90;;;;;;5063060;28;20162;-90
2022/01/09 00:46:35;;;;;;;0.00;0.00;;;4.50;99.90;;;;;;5079415;28;20047;-88
2022/01/09 00:49:02;;;;;;;0.00;0.00;;;4.50;99.90;;;;;;5062278;28;20059;-89
2022/01/09 00:51:27;;;;;;;0.00;0.00;;;4.40;99.90;;;;;;5079194;28;20514;-89
2022/01/09 00:53:53;;;;;;;0.00;0.00;;;4.50;99.90;;;;;;5078621;28;20036;-89
2022/01/09 00:56:19;;;;;;;0.00;0.00;;;4.50;99.90;;;;;;5079094;28;20040;-89
2022/01/09 00:58:44;;;;;;;0.00;0.00;;;4.90;99.90;;;;;;5078672;28;20039;-90
2022/01/09 01:01:10;;;;;;;0.10;0.10;;;4.50;99.90;;;;;;5078994;28;20048;-89
2022/01/09 01:03:39;;;;;;;0.20;0.20;;;4.70;99.90;;;;;;5078947;28;20048;-89
2022/01/09 01:06:05;;;;;;;0.00;0.00;;;4.50;99.90;;;;;;5078886;28;20048;-88
2022/01/09 01:08:30;;;;;;;0.10;0.00;;;4.50;99.90;;;;;;5078960;28;20139;-89
2022/01/09 01:10:56;;;;;;;0.00;0.00;;;4.90;99.90;;;;;;5078940;28;20094;-89
2022/01/09 01:13:22;;;;;;;0.00;0.00;;;4.60;99.90;;;;;;5062453;28;20048;-90
2022/01/09 01:15:48;;;;;;;0.00;0.00;;;4.50;99.90;;;;;;5062305;28;20043;-91
2022/01/09 01:18:14;;;;;;;0.00;0.00;;;5.40;99.90;;;;;;5078660;28;20052;-91
2022/01/09 01:20:41;;;;;;;0.00;0.00;;;4.40;99.90;;;;;;5062089;28;20140;-90
2022/01/09 01:23:09;;;;;;;0.00;0.00;;;4.50;99.90;;;;;;5062116;28;20135;-91
2022/01/09 01:25:36;;;;;;;0.00;0.00;;;4.50;99.90;;;;;;5062583;28;20040;-91
2022/01/09 01:28:02;;;;;;;0.00;0.00;;;4.50;99.90;;;;;;5062436;28;20044;-91
2022/01/09 01:30:28;;;;;;;0.00;0.00;;;4.50;99.90;;;;;;5062274;28;20040;-90
2022/01/09 01:32:54;;;;;;;0.57;0.08;;;4.50;99.90;;;;;;5078368;28;20051;-90
2022/01/09 01:35:19;;;;;;;0.38;0.10;;;4.50;99.90;;;;;;5061553;28;20050;-89
2022/01/09 01:37:45;;;;;;;0.00;0.00;;;4.50;99.90;;;;;;5078419;28;20044;-89
2022/01/09 01:40:18;;;;;;;0.00;0.00;;;4.50;99.90;;;;;;5061969;28;20043;-89
2022/01/09 01:42:44;;;;;;;0.30;0.20;;;4.50;99.90;;;;;;5061967;28;20169;-90
2022/01/09 01:45:10;;;;;;;0.00;0.00;;;4.50;99.90;;;;;;5061328;28;20547;-89
2022/01/09 01:47:37;;;;;;;0.00;0.00;;;4.50;99.90;;;;;;5061511;28;20130;-90
2022/01/09 01:50:08;;;;;;;0.00;0.00;;;4.70;99.90;;;;;;5078418;28;20051;-89
2022/01/09 01:52:42;;;;;;;0.00;0.00;;;4.50;99.90;;;;;;5078533;28;20039;-89
2022/01/09 01:55:09;;;;;;;0.00;0.00;;;5.00;99.90;;;;;;5062102;28;20399;-90
2022/01/09 01:57:41;;;;;;;0.10;0.10;;;4.50;99.90;;;;;;5061655;28;20071;-90
2022/01/09 02:00:10;;;;;;;0.00;0.00;;;4.50;99.90;;;;;;5078073;28;20044;-90
2022/01/09 02:02:36;;;;;;;0.43;0.43;;;4.50;99.90;;;;;;5061383;28;20056;-89
2022/01/09 02:05:05;;;;;;;0.00;0.00;;;4.70;99.90;;;;;;5061305;28;20051;-89
2022/01/09 02:07:31;;;;;;;0.00;0.00;;;4.50;99.90;;;;;;5061011;28;20055;-89
2022/01/09 02:09:57;;;;;;;0.22;0.22;;;5.00;99.90;;;;;;5077582;28;20086;-89
2022/01/09 02:12:23;;;;;;;0.00;0.00;;;4.80;99.90;;;;;;5077669;28;20107;-89
2022/01/09 02:14:49;;;;;;;0.73;0.10;;;4.60;99.90;;;;;;5060978;28;20131;-89
2022/01/09 02:17:19;;;;;;;0.00;0.00;;;4.60;99.90;;;;;;5077408;28;20361;-90
2022/01/09 02:19:50;;;;;;;0.10;0.08;;;4.50;99.90;;;;;;5060836;28;20059;-90
2022/01/09 02:22:16;;;;;;;0.10;0.00;;;4.80;99.90;;;;;;5077782;28;20051;-90
2022/01/09 02:24:43;;;;;;;0.10;0.10;;;4.60;99.90;;;;;;5076983;28;20372;-90
2022/01/09 02:27:09;;;;;;;0.05;0.05;;;4.50;99.90;;;;;;5077433;28;20044;-90
2022/01/09 02:29:35;;;;;;;0.00;0.00;;;4.60;99.90;;;;;;5077278;28;20048;-89
2022/01/09 02:32:00;;;;;;;0.00;0.00;;;4.60;99.90;;;;;;5077928;28;20450;-91
2022/01/09 02:34:26;;;;;;;0.00;0.00;;;5.00;99.90;;;;;;5060247;28;20134;-92
2022/01/09 02:36:52;;;;;;;0.17;0.17;;;5.10;99.90;;;;;;5060771;28;20036;-92
2022/01/09 02:39:40;;;;;;;0.28;0.10;;;4.60;99.90;;;;;;5061149;28;20051;-92
2022/01/09 02:42:24;;;;;;;0.85;0.10;;;4.60;99.90;;;;;;5060965;28;20044;-93
2022/01/09 02:44:50;;;;;;;0.00;0.00;;;4.50;99.90;;;;;;5061063;28;20510;-93
2022/01/09 02:47:17;;;;;;;0.20;0.00;;;4.60;99.90;;;;;;5076969;28;20067;-93
2022/01/09 02:50:03;;;;;;;0.00;0.00;;;4.60;99.90;;;;;;5060797;28;20055;-93
2022/01/09 02:55:36;;;;;;;0.00;0.00;;;5.00;99.90;;;;;;5016657;28;20103;-92
2022/01/09 02:58:04;;;;;;;0.00;0.00;;;4.70;99.90;;;;;;5016192;28;20585;-90
2022/01/09 03:00:33;;;;;;;0.00;0.00;;;4.70;99.90;;;;;;5016273;28;20392;-89
2022/01/09 03:02:59;;;;;;;1.70;0.93;;;4.70;99.90;;;;;;5015606;28;20041;-90
2022/01/09 03:05:27;;;;;;;0.10;0.00;;;4.60;99.90;;;;;;4999765;28;20072;-89
2022/01/09 03:07:53;;;;;;;0.00;0.00;;;4.80;99.90;;;;;;4999537;28;20088;-90
2022/01/09 03:10:20;;;;;;;0.00;0.00;;;4.90;99.90;;;;;;5016302;28;20497;-90
2022/01/09 03:12:53;;;;;;;0.00;0.00;;;4.70;99.90;;;;;;5016054;28;20088;-89
2022/01/09 03:15:19;;;;;;;0.00;0.00;;;4.80;99.90;;;;;;5015726;28;20068;-90
2022/01/09 03:17:48;;;;;;;0.38;0.00;;;4.80;99.90;;;;;;5016066;28;20045;-91
2022/01/09 03:20:20;;;;;;;0.00;0.00;;;4.90;99.90;;;;;;4999421;28;20140;-89
2022/01/09 03:22:53;;;;;;;;;;;4.70;99.90;;;;;;5016392;28;20047;-90
2022/01/09 03:25:19;;;;;;;6.40;0.85;;;4.80;99.90;;;;;;5037803;28;20015;-90
2022/01/09 03:27:51;;;;;;;0.00;0.00;;;4.90;99.90;;;;;;5060303;28;20551;-91
2022/01/09 03:30:19;;;;;;;0.00;0.00;;;4.90;99.90;;;;;;5060042;28;20498;-91
2022/01/09 03:32:48;;;;;;;0.00;0.00;;;4.90;99.90;;;;;;5059759;28;20040;-93
2022/01/09 03:35:22;;;;;;;0.05;0.05;;;5.00;99.90;;;;;;5059942;28;20059;-93
2022/01/09 03:38:22;;;;;;;0.00;0.00;;;5.00;99.90;;;;;;5094664;28;20093;-92
2022/01/09 03:40:59;;;;;;;0.00;0.00;;;5.30;99.90;;;;;;5060039;28;20548;-93
2022/01/09 03:43:30;;;;;;;0.00;0.00;;;5.00;99.90;;;;;;5060004;28;20056;-93
2022/01/09 03:46:06;;;;;;;0.22;0.08;;;5.50;99.90;;;;;;5059372;28;20136;-93
2022/01/09 03:48:43;;;;;;;0.00;0.00;;;5.10;99.90;;;;;;5059302;28;20051;-93
2022/01/09 03:51:18;;;;;;;0.00;0.00;;;5.10;99.90;;;;;;5059772;28;20472;-92
2022/01/09 03:53:46;;;;;;;0.00;0.00;;;5.20;99.90;;;;;;5076528;28;20056;-91
2022/01/09 03:56:14;;;;;;;0.00;0.00;;;5.10;99.90;;;;;;5076278;28;20086;-91
2022/01/09 03:58:40;;;;;;;0.00;0.00;;;5.20;99.90;;;;;;5059711;28;20518;-92
2022/01/09 04:01:06;;;;;;;0.00;0.00;;;5.70;99.90;;;;;;5076317;28;20044;-91
2022/01/09 04:03:39;;;;;;;0.00;0.00;;;5.20;99.90;;;;;;5059702;28;20388;-91
2022/01/09 04:06:04;;;;;;;0.00;0.00;;;5.20;99.90;;;;;;5059871;28;20052;-90
2022/01/09 04:08:34;;;;;;;0.43;0.00;;;5.20;99.90;;;;;;5058877;28;20450;-91
2022/01/09 04:11:04;;;;;;;0.00;0.00;;;5.30;99.90;;;;;;5076259;28;20087;-91
2022/01/09 04:13:30;;;;;;;0.03;0.03;;;5.30;99.90;;;;;;5076078;28;20482;-90
2022/01/09 04:15:59;;;;;;;0.85;0.30;;;5.30;99.90;;;;;;5058872;28;20040;-90
2022/01/09 04:18:25;;;;;;;0.00;0.00;;;5.40;99.90;;;;;;5059080;28;20052;-90
2022/01/09 04:20:54;;;;;;;0.08;0.08;;;5.40;99.90;;;;;;5059053;28;20052;-90
2022/01/09 04:23:22;;;;;;;0.00;0.00;;;5.40;99.90;;;;;;5059484;28;20075;-91
2022/01/09 04:25:48;;;;;;;0.00;0.00;;;5.50;99.90;;;;;;5075737;28;20402;-90
2022/01/09 04:28:15;;;;;;;0.00;0.00;;;5.60;99.90;;;;;;5059195;28;20130;-90
2022/01/09 04:30:43;;;;;;;6.00;0.85;;;5.70;99.90;;;;;;5059539;28;20406;-91
2022/01/09 04:33:10;;;;;;;0.00;0.00;;;5.70;99.90;;;;;;5076117;28;20130;-90
2022/01/09 04:35:37;;;;;;;0.00;0.00;;;5.60;99.90;;;;;;5075363;28;20040;-91
2022/01/09 04:38:03;;;;;;;0.00;0.00;;;5.70;99.90;;;;;;5075649;28;20055;-90
2022/01/09 04:40:29;;;;;;;0.20;0.20;;;5.70;99.90;;;;;;5058337;28;20040;-89
2022/01/09 04:42:59;;;;;;;0.00;0.00;;;5.60;99.90;;;;;;5059590;28;20047;-89
2022/01/09 04:45:29;;;;;;;0.20;0.20;;;5.80;99.90;;;;;;5059178;28;20044;-90
2022/01/09 04:48:04;;;;;;;0.03;0.03;;;5.80;99.90;;;;;;5059831;28;20048;-90
2022/01/09 04:50:32;;;;;;;0.50;0.35;;;6.80;99.90;;;;;;5075536;28;20106;-91
2022/01/09 04:53:05;;;;;;;0.00;0.00;;;5.70;99.90;;;;;;5058848;28;20051;-90
2022/01/09 04:55:34;;;;;;;0.90;0.55;;;5.80;99.90;;;;;;5059169;28;20144;-90
2022/01/09 04:58:00;;;;;;;11.50;1.65;;;5.70;99.90;;;;;;5077701;28;20097;-90
2022/01/09 05:00:26;;;;;;;0.47;0.47;;;5.90;99.90;;;;;;5062446;28;20436;-90
2022/01/09 05:02:52;;;;;;;2.80;1.10;;;6.50;99.90;;;;;;5078787;28;20153;-90
2022/01/09 05:05:19;;;;;;;2.13;0.85;;;5.80;99.90;;;;;;5079262;28;20040;-90
2022/01/09 05:07:44;;;;;;;0.00;0.00;;;5.90;99.90;;;;;;5062167;28;20048;-89
2022/01/09 05:10:11;;;;;;;0.00;0.00;;;5.70;99.90;;;;;;5061789;28;20059;-89
2022/01/09 05:12:38;;;;;;;0.00;0.00;;;5.80;99.90;;;;;;5079001;28;20044;-89
2022/01/09 05:15:05;;;;;;;0.00;0.00;;;5.80;99.90;;;;;;5061730;28;20081;-89
2022/01/09 05:17:32;;;;;;;0.55;0.32;;;5.80;99.90;;;;;;5078577;28;20052;-89
2022/01/09 05:19:57;;;;;;;0.35;0.28;;;5.70;99.90;;;;;;5078170;28;20056;-89
2022/01/09 05:22:28;;;;;;;0.00;0.00;;;5.80;99.90;;;;;;5061968;28;20056;-89
2022/01/09 05:24:54;;;;;;;0.00;0.00;;;5.80;99.90;;;;;;5061723;28;20055;-89
2022/01/09 05:27:23;;;;;;;0.80;0.80;;;5.80;99.90;;;;;;5061743;28;20044;-89
2022/01/09 05:29:49;;;;;;;1.75;0.17;;;5.70;99.90;;;;;;5062071;28;20044;-89
2022/01/09 05:32:14;;;;;;;0.73;0.43;;;5.70;99.90;;;;;;5061517;28;20040;-90
2022/01/09 05:34:40;;;;;;;0.00;0.00;;;5.70;99.90;;;;;;5061985;28;20087;-89
2022/01/09 05:37:06;;;;;;;0.10;0.05;;;5.70;99.90;;;;;;5061150;28;20036;-89
2022/01/09 05:39:32;;;;;;;0.77;0.55;;;5.70;99.90;;;;;;5061738;28;20122;-89
2022/01/09 05:41:59;;;;;;;0.52;0.10;;;5.60;99.90;;;;;;5078634;28;20062;-88
2022/01/09 05:44:25;;;;;;;16.35;1.15;;;5.70;99.90;;;;;;5078078;28;20048;-88
2022/01/09 05:46:50;;;;;;;0.00;0.00;;;5.70;99.90;;;;;;5078097;28;20056;-88
2022/01/09 05:49:16;;;;;;;0.45;0.25;;;5.60;99.90;;;;;;5061006;28;20098;-88
2022/01/09 05:51:42;;;;;;;0.30;0.13;;;5.60;99.90;;;;;;5078141;28;20048;-88
2022/01/09 05:54:08;;;;;;;0.00;0.00;;;6.50;99.90;;;;;;5061276;28;20452;-88
2022/01/09 05:56:34;;;;;;;0.32;0.22;;;5.60;99.90;;;;;;5060905;28;20071;-89
2022/01/09 05:59:00;;;;;;;0.00;0.00;;;5.80;99.90;;;;;;5077784;28;20480;-88
2022/01/09 06:01:26;;;;;;;0.00;0.00;;;5.60;99.90;;;;;;5077627;28;20044;-88
2022/01/09 06:03:52;;;;;;;0.00;0.00;;;5.50;99.90;;;;;;5060748;28;20047;-88
2022/01/09 06:06:18;;;;;;;0.00;0.00;;;5.50;99.90;;;;;;5061268;28;20040;-89
2022/01/09 06:08:44;;;;;;;0.00;0.00;;;5.50;99.90;;;;;;5076927;28;20037;-89
2022/01/09 06:11:09;;;;;;;0.00;0.00;;;5.50;99.90;;;;;;5077488;28;20044;-88
2022/01/09 06:13:35;;;;;;;0.22;0.22;;;5.40;99.90;;;;;;5077231;28;20043;-88
2022/01/09 06:16:03;;;;;;;0.00;0.00;;;5.80;99.90;;;;;;5060694;28;20048;-89
2022/01/09 06:18:29;;;;;;;0.00;0.00;;;6.20;99.90;;;;;;5076924;28;20530;-88
2022/01/09 06:20:56;;;;;;;0.20;0.20;;;5.80;99.90;;;;;;5060651;28;20132;-89
2022/01/09 06:23:23;;;;;;;0.03;0.03;;;5.20;99.90;;;;;;5060731;28;20466;-88
2022/01/09 06:25:52;;;;;;;1.55;0.50;;;5.40;99.90;;;;;;5060673;28;20136;-88
2022/01/09 06:28:18;;;;;;;0.00;0.00;;;5.40;99.90;;;;;;5060807;28;20036;-89
2022/01/09 06:30:45;;;;;;;0.05;0.05;;;5.40;99.90;;;;;;5060190;28;20087;-89
2022/01/09 06:33:12;;;;;;;0.00;0.00;;;5.40;99.90;;;;;;5060404;28;20091;-88
2022/01/09 06:35:38;;;;;;;0.00;0.00;;;5.30;99.90;;;;;;5077265;28;20074;-89
2022/01/09 06:38:05;;;;;;;0.00;0.00;;;5.30;99.90;;;;;;5077475;28;20067;-89
2022/01/09 06:40:31;;;;;;;0.00;0.00;;;5.30;99.90;;;;;;5077081;28;20048;-89
2022/01/09 06:42:57;;;;;;;0.00;0.00;;;5.40;99.90;;;;;;5076914;28;20146;-89
2022/01/09 06:45:25;;;;;;;0.00;0.00;;;5.50;99.90;;;;;;5060315;28;20511;-89
2022/01/09 06:47:52;;;;;;;0.25;0.17;;;5.40;99.90;;;;;;5076976;28;20056;-89
2022/01/09 06:50:18;;;;;;;0.00;0.00;;;6.20;99.90;;;;;;5060552;28;20048;-89
2022/01/09 06:52:44;;;;;;;0.25;0.25;;;5.50;99.90;;;;;;5076774;28;20102;-89
2022/01/09 06:55:11;;;;;;;0.00;0.00;;;5.80;99.90;;;;;;5077033;28;20432;-89
2022/01/09 06:57:37;;;;;;;0.00;0.00;;;5.30;99.90;;;;;;5076637;28;20483;-90
2022/01/09 07:00:07;;;;;;;0.00;0.00;;;5.30;99.90;;;;;;5059925;28;20066;-89
2022/01/09 07:02:33;;;;;;;0.30;0.20;;;5.20;99.90;;;;;;5059626;28;20093;-89
2022/01/09 07:04:59;;;;;;;0.00;0.00;;;5.40;99.90;;;;;;5077005;28;20422;-89
2022/01/09 07:07:25;;;;;;;0.00;0.00;;;5.30;99.90;;;;;;5076444;28;20043;-89
2022/01/09 07:09:50;;;;;;;2.63;0.00;;;5.20;99.90;;;;;;5076712;28;20412;-89
2022/01/09 07:12:16;;;;;;;0.17;0.10;;;5.60;99.90;;;;;;5076573;28;20044;-89
2022/01/09 07:14:42;;;;;;;0.00;0.00;;;5.20;99.90;;;;;;5059871;28;20135;-90
2022/01/09 07:17:08;;;;;;;0.00;0.00;;;5.20;99.90;;;;;;5076863;28;20087;-90
2022/01/09 07:19:34;;;;;;;0.00;0.00;;;5.00;99.90;;;;;;5059458;28;20052;-89
2022/01/09 07:21:59;;;;;;;0.20;0.17;;;5.20;99.90;;;;;;5059247;28;20435;-90
2022/01/09 07:24:25;;;;;;;0.00;0.00;;;5.10;99.90;;;;;;5059972;28;20047;-90
2022/01/09 07:26:51;;;;;;;0.00;0.00;;;5.10;99.90;;;;;;5059529;28;20048;-90
2022/01/09 07:29:16;;;;;;;0.00;0.00;;;5.20;99.90;;;;;;5059534;28;20078;-90
2022/01/09 07:31:42;;;;;;;0.00;0.00;;;5.20;99.90;;;;;;5076255;28;20044;-89
2022/01/09 07:34:08;;;;;;;0.40;0.40;;;4.80;99.90;;;;;;5059580;28;20077;-89
2022/01/09 07:36:34;;;;;;;3.20;1.30;;;5.10;99.90;;;;;;5076424;28;20051;-89
2022/01/09 07:38:59;;;;;;;2.53;0.65;;;5.30;99.90;;;;;;5076552;28;20112;-90
2022/01/09 07:41:25;;;;;;;0.00;0.00;;;5.00;99.90;;;;;;5059800;28;20075;-90
2022/01/09 07:43:51;;;;;;;0.47;0.25;;;5.10;99.90;;;;;;5076273;28;20055;-90
2022/01/09 07:46:17;;;;;;;12.57;1.65;;;5.60;99.90;;;;;;5075799;28;20149;-89
2022/01/09 07:48:43;;;;;;;0.00;0.00;;;5.10;99.90;;;;;;5059152;28;20052;-90
2022/01/09 07:51:09;;;;;;;0.00;0.00;;;5.30;99.90;;;;;;5059670;28;20044;-89
2022/01/09 07:53:44;;;;;;;0.00;0.00;;;5.30;99.90;;;;;;5076017;28;20121;-91
2022/01/09 07:56:15;;;;;;;;;;;4.90;99.90;;;;;;5065896;28;20044;-89
2022/01/09 07:58:43;;;;;;;0.00;0.00;;;5.00;99.90;;;;;;5048866;28;19931;-88
2022/01/09 08:01:12;;;;;;;0.10;0.10;;;4.90;99.90;;;;;;5047538;28;20102;-89
2022/01/09 08:03:38;;;;;;;0.00;0.00;;;5.40;99.90;;;;;;5063544;28;20079;-88
2022/01/09 08:06:06;;;;;;;0.43;0.43;;;4.90;99.90;;;;;;5046190;28;20068;-88
2022/01/09 08:08:32;;;;;;;1.90;0.17;;;4.90;99.90;;;;;;5042136;28;20143;-89
2022/01/09 08:10:58;;;;;;;0.00;0.00;;;5.00;99.90;;;;;;5046136;28;20503;-89
2022/01/09 08:13:24;;;;;;;0.00;0.00;;;4.80;99.90;;;;;;5046736;28;20052;-88
2022/01/09 08:15:55;;;;;;;0.00;0.00;;;4.90;99.90;;;;;;5045913;28;20044;-90
2022/01/09 08:18:24;;;;;;;0.05;0.05;;;5.00;99.90;;;;;;5046783;28;20415;-88
2022/01/09 08:20:49;;;;;;;0.00;0.00;;;5.00;99.90;;;;;;5065213;28;20105;-88
2022/01/09 08:23:17;;;;;;;0.00;0.00;;;4.80;99.90;;;;;;5046858;28;20040;-87
2022/01/09 08:25:51;;;;;;;1.20;0.52;;;5.00;99.90;;;;;;5062800;28;20048;-89
2022/01/09 08:28:17;;;;;;;0.00;0.00;;;6.20;99.90;;;;;;5063514;28;20496;-88
2022/01/09 08:30:48;;;;;;;0.00;0.00;;;5.00;99.90;;;;;;5064306;28;20043;-89
2022/01/09 08:33:17;;;;;;;0.13;0.13;;;5.10;99.90;;;;;;5067385;28;20050;-88
2022/01/09 08:35:46;;;;;;;0.00;0.00;;;5.10;99.90;;;;;;5067254;28;20045;-87
2022/01/09 08:38:14;;;;;;;0.00;0.00;;;5.70;99.90;;;;;;5048683;28;20036;-89
2022/01/09 08:40:40;;;;;;;0.00;0.00;;;5.10;99.90;;;;;;5051642;28;20063;-87
2022/01/09 08:43:08;;;;;;;0.00;0.00;;;5.30;99.90;;;;;;5069652;28;20036;-90
2022/01/09 08:45:37;;;;;;;0.00;0.00;;;5.10;99.90;;;;;;5056363;28;20048;-94
2022/01/09 08:48:03;;;;;;;0.00;0.00;;;5.10;99.90;;;;;;5059929;28;20555;-88
2022/01/09 08:50:31;;;;;;;0.10;0.10;;;5.10;99.90;;;;;;5061448;28;20044;-92
2022/01/09 08:52:57;;;;;;;0.00;0.00;;;5.30;99.90;;;;;;5078740;28;20048;-88
2022/01/09 08:55:23;;;;;;;0.00;0.00;;;5.40;99.90;;;;;;5078901;28;20055;-93
2022/01/09 08:57:50;;;;;;;0.75;0.20;;;5.20;99.90;;;;;;5060779;28;20399;-87
2022/01/09 09:00:18;;;;;;;0.40;0.35;;;5.20;99.90;;;;;;5076450;28;20055;-88
2022/01/09 09:02:44;;;;;;;0.00;0.00;;;5.20;99.90;;;;;;5077801;28;20673;-89
2022/01/09 09:05:10;;;;;;;0.00;0.00;;;5.30;99.90;;;;;;5057141;28;20186;-94
2022/01/09 09:07:36;;;;;;;0.75;0.75;;;5.20;99.90;;;;;;5052417;28;20109;-87
2022/01/09 09:10:04;;;;;;;0.50;0.50;;;5.20;99.90;;;;;;5076824;28;20044;-87
2022/01/09 09:12:32;;;;;;;0.75;0.43;;;5.30;99.90;;;;;;5077229;28;20051;-88
2022/01/09 09:15:03;;;;;;;0.00;0.00;;;5.30;99.90;;;;;;5060421;28;20048;-88
2022/01/09 09:17:30;;;;;;;0.00;0.00;;;5.40;99.90;;;;;;5059142;28;20554;-89
2022/01/09 09:19:56;;;;;;;0.00;0.00;;;5.30;99.90;;;;;;5073437;28;20067;-88
2022/01/09 09:22:25;;;;;;;7.38;1.45;;;5.40;99.90;;;;;;5073584;28;20052;-88
2022/01/09 09:24:51;;;;;;;0.00;0.00;;;5.80;99.90;;;;;;5056771;28;20446;-87
2022/01/09 09:27:19;;;;;;;0.00;0.00;;;5.50;99.90;;;;;;5072980;28;20048;-88
2022/01/09 09:29:45;;;;;;;0.00;0.00;;;5.40;99.90;;;;;;5073909;28;20045;-89
2022/01/09 09:32:13;;;;;;;0.00;0.00;;;5.00;99.90;;;;;;5073008;28;20389;-88
2022/01/09 09:34:39;;;;;;;0.52;0.17;;;5.20;99.90;;;;;;5057259;28;20080;-88
2022/01/09 09:37:06;;;;;;;0.93;0.30;;;5.50;99.90;;;;;;5072386;28;20127;-89
2022/01/09 09:39:33;;;;;;;0.00;0.00;;;5.50;99.90;;;;;;5057131;28;20415;-88
2022/01/09 09:42:00;;;;;;;0.00;0.00;;;5.60;99.90;;;;;;5073251;28;20044;-88
2022/01/09 09:44:26;;;;;;;0.00;0.00;;;5.50;99.90;;;;;;5073016;28;20041;-88
2022/01/09 09:46:53;;;;;;;0.00;0.00;;;5.50;99.90;;;;;;5065711;28;20044;-88
2022/01/09 09:49:20;;;;;;;1.85;0.98;;;6.70;99.90;;;;;;5054285;28;20126;-88
2022/01/09 09:51:49;;;;;;;0.00;0.00;;;5.60;99.90;;;;;;5073297;28;20119;-89
2022/01/09 09:54:14;;;;;;;0.00;0.00;;;5.60;99.90;;;;;;5056309;28;20045;-89
2022/01/09 09:56:40;;;;;;;0.20;0.20;;;5.70;99.90;;;;;;5072330;28;20052;-88
2022/01/09 09:59:06;;;;;;;0.30;0.30;;;5.70;99.90;;;;;;5056308;28;20049;-88
2022/01/09 10:01:35;;;;;;;0.10;0.10;;;5.70;99.90;;;;;;5056116;28;20048;-88
2022/01/09 10:04:04;;;;;;;0.00;0.00;;;5.30;99.90;;;;;;5073835;28;20423;-89
2022/01/09 10:06:41;;;;;;;0.00;0.00;;;5.70;99.90;;;;;;5072252;28;20092;-90
2022/01/09 10:09:19;;;;;;;0.00;0.00;;;5.80;99.90;;;;;;5072500;28;20443;-87
2022/01/09 10:11:56;;;;;;;0.17;0.17;;;5.80;99.90;;;;;;5072205;28;20048;-87
2022/01/09 10:14:30;;;;;;;0.00;0.00;;;5.80;99.90;;;;;;5072663;28;20060;-87
2022/01/09 10:17:08;;;;;;;0.00;0.00;;;5.90;99.90;;;;;;5053789;28;20052;-88
2022/01/09 10:19:49;;;;;;;0.00;0.00;;;5.90;99.90;;;;;;5043606;28;20061;-89
2022/01/09 10:22:36;;;;;;;0.00;0.00;;;5.90;99.90;;;;;;5055824;28;20174;-88
2022/01/09 10:25:22;;;;;;;0.00;0.00;;;5.90;99.90;;;;;;5038099;28;20045;-88
2022/01/09 10:27:55;;;;;;;0.00;0.00;;;5.90;99.90;;;;;;5051696;28;20057;-87
2022/01/09 10:30:27;;;;;;;0.00;0.00;;;6.10;99.90;;;;;;5035701;28;20052;-89
2022/01/09 10:33:01;;;;;;;0.00;0.00;;;5.90;99.90;;;;;;5035693;28;20060;-88
2022/01/09 10:35:29;;;;;;;0.00;0.00;;;6.50;99.90;;;;;;5055430;28;20423;-89
2022/01/09 10:38:16;;;;;;;0.00;0.00;;;6.10;99.90;;;;;;5054691;28;20041;-88
2022/01/09 10:40:49;;;;;;;0.00;0.00;;;6.20;99.90;;;;;;5062480;28;20068;-88
2022/01/09 10:43:21;;;;;;;0.00;0.00;;;8.10;99.90;;;;;;5036988;28;20056;-89
2022/01/09 10:45:59;;;;;;;0.22;0.10;;;6.80;99.90;;;;;;5053866;28;20435;-88
2022/01/09 10:48:31;;;;;;;0.00;0.00;;;7.50;99.90;;;;;;5037048;28;20049;-89
2022/01/09 10:51:01;;;;;;;0.10;0.10;;;7.40;99.90;;;;;;5036554;28;20053;-89
2022/01/09 10:53:31;;;;;;;0.00;0.00;;;7.50;99.90;;;;;;5053437;28;20044;-88
2022/01/09 10:56:15;;;;;;;0.00;0.00;;;7.70;99.90;;;;;;5053157;28;20037;-88
2022/01/09 10:58:57;;;;;;;0.00;0.00;;;7.40;99.90;;;;;;5037128;28;20057;-90
2022/01/09 11:01:31;;;;;;;0.00;0.00;;;7.30;99.90;;;;;;5053273;28;20048;-90
2022/01/09 11:04:04;;;;;;;0.10;0.10;;;7.30;99.90;;;;;;5053424;28;20575;-89
2022/01/09 11:06:31;;;;;;;0.00;0.00;;;7.10;99.90;;;;;;5037019;28;20037;-89
2022/01/09 11:08:58;;;;;;;0.00;0.00;;;7.20;99.90;;;;;;5036989;28;20048;-89
2022/01/09 11:14:00;;;;;;;5.60;0.47;;;7.40;99.90;;;;;;5053567;28;20163;-90
2022/01/09 11:16:34;;;;;;;0.80;0.65;;;7.90;99.90;;;;;;5036734;28;20041;-90
2022/01/09 11:19:02;;;;;;;0.30;0.30;;;9.80;99.90;;;;;;5053482;28;20052;-90
2022/01/09 11:21:28;;;;;;;0.00;0.00;;;8.90;99.90;;;;;;5037237;28;20083;-90
2022/01/09 11:24:18;;;;;;;0.00;0.00;;;8.80;99.90;;;;;;5053322;28;20045;-90
2022/01/09 11:26:53;;;;;;;0.00;0.00;;;8.60;99.90;;;;;;5036654;28;20049;-90
2022/01/09 11:29:37;;;;;;;0.00;0.00;;;8.60;99.90;;;;;;5036809;28;20041;-89
2022/01/09 11:32:15;;;;;;;1.10;0.22;;;8.60;99.90;;;;;;5043302;28;20451;-90
2022/01/09 11:34:43;;;;;;;0.00;0.00;;;8.60;99.90;;;;;;5066578;28;20496;-89
2022/01/09 11:37:40;;;;;;;0.00;0.00;;;8.80;99.90;;;;;;5045118;28;20047;-90
2022/01/09 11:40:23;;;;;;;0.75;0.30;;;8.80;99.90;;;;;;5046721;28;20040;-90
2022/01/09 11:43:07;;;;;;;1.02;0.15;;;8.90;99.90;;;;;;5045240;28;20088;-89
2022/01/09 11:45:44;;;;;;;0.32;0.20;;;8.90;99.90;;;;;;5051662;28;20051;-89
2022/01/09 11:48:11;;;;;;;0.00;0.00;;;8.90;99.90;;;;;;5052327;28;20057;-90
2022/01/09 11:51:06;;;;;;;0.00;0.00;;;8.90;99.90;;;;;;5052863;28;20060;-89
2022/01/09 11:53:55;;;;;;;0.00;0.00;;;8.50;99.90;;;;;;5035744;28;20082;-88
2022/01/09 11:56:48;;;;;;;0.00;0.00;;;8.30;99.90;;;;;;5052852;28;20841;-89
2022/01/09 11:59:27;;;;;;;0.00;0.00;;;8.00;99.90;;;;;;5052801;28;20055;-89
2022/01/09 12:01:59;;;;;;;0.00;0.00;;;7.90;99.90;;;;;;5052730;28;20052;-88
2022/01/09 12:04:34;;;;;;;0.00;0.00;;;8.00;99.90;;;;;;5052218;28;20135;-89
2022/01/09 12:07:07;;;;;;;0.00;0.00;;;8.20;99.90;;;;;;5052982;28;20091;-88
2022/01/09 12:09:48;;;;;;;0.10;0.10;;;8.10;99.90;;;;;;5056824;28;20080;-89
2022/01/09 12:12:35;;;;;;;0.10;0.00;;;8.20;99.90;;;;;;5055949;28;20053;-89
2022/01/09 12:15:04;;;;;;;0.00;0.00;;;8.60;99.90;;;;;;5057100;28;20045;-89
2022/01/09 12:17:38;;;;;;;0.00;0.00;;;8.70;99.90;;;;;;5056367;28;20052;-89
2022/01/09 12:20:26;;;;;;;0.00;0.00;;;9.00;99.90;;;;;;5056385;28;20064;-87
2022/01/09 12:23:02;;;;;;;0.00;0.00;;;9.20;99.90;;;;;;5040188;28;20481;-89
2022/01/09 12:25:33;;;;;;;0.00;0.00;;;9.10;99.90;;;;;;5056774;28;20075;-89
2022/01/09 12:28:20;;;;;;;0.00;0.00;;;9.10;99.90;;;;;;5056972;28;20036;-89
2022/01/09 12:30:57;;;;;;;0.00;0.00;;;9.20;99.90;;;;;;5056154;28;20076;-90
2022/01/09 12:33:25;;;;;;;0.00;0.00;;;9.40;99.90;;;;;;5056643;28;20147;-89
2022/01/09 12:36:08;;;;;;;0.00;0.00;;;9.40;99.90;;;;;;5056637;28;20102;-90
2022/01/09 12:38:45;;;;;;;0.00;0.00;;;9.40;99.90;;;;;;5056187;28;20477;-90
2022/01/09 12:41:15;;;;;;;0.00;0.00;;;9.40;99.90;;;;;;5056382;28;20557;-89
2022/01/09 12:43:42;;;;;;;0.70;0.70;;;9.30;99.90;;;;;;5056429;28;20080;-89
2022/01/09 12:46:09;;;;;;;0.40;0.40;;;9.50;99.90;;;;;;5056884;28;20080;-90
2022/01/09 12:48:35;;;;;;;0.00;0.00;;;9.80;99.90;;;;;;5056471;28;20435;-90
2022/01/09 12:51:12;;;;;;;0.95;0.35;;;10.60;99.90;;;;;;5056739;28;20144;-90
2022/01/09 12:53:48;;;;;;;0.03;0.03;;;9.70;99.90;;;;;;5048212;28;20048;-90
2022/01/09 12:56:20;;;;;;;0.30;0.10;;;9.00;99.90;;;;;;5039666;28;20041;-90
2022/01/09 12:58:56;;;;;;;0.00;0.00;;;8.70;99.90;;;;;;5056474;28;20499;-89
2022/01/09 13:01:28;;;;;;;0.00;0.00;;;8.20;99.90;;;;;;5056326;28;20509;-89
2022/01/09 13:03:58;;;;;;;0.00;0.00;;;8.00;99.90;;;;;;5039584;28;20053;-89
2022/01/09 13:06:28;;;;;;;0.00;0.00;;;7.80;99.90;;;;;;5039619;28;20087;-89
2022/01/09 13:08:56;;;;;;;0.00;0.00;;;7.60;99.90;;;;;;5039205;28;20041;-89
2022/01/09 13:11:24;;;;;;;0.00;0.00;;;7.50;99.90;;;;;;5039615;28;20075;-89
2022/01/09 13:13:51;;;;;;;0.00;0.00;;;7.40;99.90;;;;;;5039515;28;20066;-89